Time;durP1;ratioP1;P1;durP2;ratioP2;P2;SDS_P1;SDS_P2;PMS_P1;PMS_P2;Temp;Humidity;BMP_temperature;BMP_pressure;BME280_temperature;BME280_humidity;BME280_pressure;Samples;Min_cycle;Max_cycle;Signal;HPM_P1;HPM_P2
2021/03/26 00:01:10;;;;;;;0.10;0.10;;;;;;;-3.19;90.78;100923.63;1760647;80;21552;-41
2021/03/26 00:03:40;;;;;;;0.05;0.05;;;;;;;-3.15;90.80;100927.59;1764049;81;21151;-43
2021/03/26 00:06:16;;;;;;;1.55;0.57;;;;;;;-3.12;90.74;100930.42;1764161;80;21091;-43
2021/03/26 00:08:44;;;;;;;0.55;0.55;;;;;;;-3.11;90.65;100924.91;1764454;80;23420;-42
2021/03/26 00:11:14;;;;;;;1.07;0.42;;;;;;;-3.08;90.51;100930.40;1724303;83;21555;-42
2021/03/26 00:13:42;;;;;;;0.10;0.10;;;;;;;-3.10;90.38;100921.20;1724621;83;21706;-43
2021/03/26 00:16:12;;;;;;;0.10;0.10;;;;;;;-3.10;90.36;100929.74;1752206;80;21544;-43
2021/03/26 00:18:41;;;;;;;0.10;0.10;;;;;;;-3.12;90.26;100930.42;1735325;82;21188;-43
2021/03/26 00:21:10;;;;;;;0.10;0.10;;;;;;;-3.14;90.23;100925.27;1737639;82;21938;-43
2021/03/26 00:23:38;;;;;;;1.95;0.35;;;;;;;-3.17;90.18;100925.60;1737994;82;21168;-42
2021/03/26 00:26:05;;;;;;;0.00;0.00;;;;;;;-3.19;90.18;100926.30;1737702;82;21151;-43
2021/03/26 00:28:34;;;;;;;0.20;0.20;;;;;;;-3.20;90.16;100924.63;1738016;81;21141;-43
2021/03/26 00:31:01;;;;;;;0.20;0.10;;;;;;;-3.21;90.12;100915.44;1737130;82;21125;-42
2021/03/26 00:33:29;;;;;;;0.15;0.15;;;;;;;-3.23;90.09;100921.48;1732393;81;21133;-42
2021/03/26 00:35:57;;;;;;;0.68;0.62;;;;;;;-3.25;90.10;100932.34;1732792;82;21172;-43
2021/03/26 00:38:27;;;;;;;1.15;1.15;;;;;;;-3.27;90.07;100925.83;1732089;81;21164;-43
2021/03/26 00:40:54;;;;;;;0.45;0.45;;;;;;;-3.25;90.16;100928.34;1732742;82;21590;-42
2021/03/26 00:43:22;;;;;;;0.20;0.20;;;;;;;-3.23;90.10;100931.67;1733051;82;21117;-42
2021/03/26 00:45:49;;;;;;;0.15;0.15;;;;;;;-3.21;90.07;100938.16;1732905;81;21159;-42
2021/03/26 00:48:19;;;;;;;0.10;0.10;;;;;;;-3.22;89.95;100938.67;1731902;82;21591;-43
2021/03/26 00:50:53;;;;;;;0.00;0.00;;;;;;;-3.25;89.87;100937.69;1739998;81;21436;-43
2021/03/26 00:53:30;;;;;;;0.05;0.05;;;;;;;-3.28;89.92;100936.72;1757084;81;21120;-43
2021/03/26 00:56:00;;;;;;;0.17;0.17;;;;;;;-3.29;89.90;100940.38;1756366;81;21501;-43
2021/03/26 00:58:27;;;;;;;0.10;0.10;;;;;;;-3.29;89.86;100936.37;1756942;81;21160;-41
2021/03/26 01:00:55;;;;;;;0.15;0.15;;;;;;;-3.30;89.85;100939.55;1756603;81;21640;-42
2021/03/26 01:03:23;;;;;;;0.33;0.33;;;;;;;-3.31;89.80;100949.11;1756677;80;21118;-42
2021/03/26 01:05:53;;;;;;;0.10;0.10;;;;;;;-3.32;89.75;100944.75;1755010;81;21195;-42
2021/03/26 01:08:21;;;;;;;0.50;0.50;;;;;;;-3.34;89.72;100949.43;1727975;81;21176;-43
2021/03/26 01:10:58;;;;;;;0.10;0.10;;;;;;;-3.36;89.73;100948.29;1709624;82;21199;-43
2021/03/26 01:13:26;;;;;;;0.55;0.55;;;;;;;-3.38;89.71;100952.15;1728519;82;21124;-43
2021/03/26 01:15:54;;;;;;;0.15;0.13;;;;;;;-3.38;89.72;100953.48;1735052;82;21109;-42
2021/03/26 01:18:32;;;;;;;0.05;0.05;;;;;;;-3.42;89.73;100954.32;1734154;81;21158;-42
2021/03/26 01:21:01;;;;;;;0.10;0.10;;;;;;;-3.43;89.78;100953.18;1720305;82;21200;-43
2021/03/26 01:23:28;;;;;;;0.10;0.10;;;;;;;-3.46;89.79;100945.84;1735043;81;21138;-43
2021/03/26 01:25:56;;;;;;;0.45;0.45;;;;;;;-3.47;89.78;100948.16;1756021;81;21157;-43
2021/03/26 01:28:41;;;;;;;0.87;0.87;;;;;;;-3.42;89.89;100942.80;1833885;76;28212;-43
2021/03/26 01:31:16;;;;;;;0.25;0.25;;;;;;;-3.45;89.84;100949.34;1772146;79;21119;-44
2021/03/26 01:33:44;;;;;;;0.00;0.00;;;;;;;-3.46;89.83;100952.52;1733686;82;21147;-43
2021/03/26 01:36:13;;;;;;;0.30;0.30;;;;;;;-3.45;89.84;100948.00;1744725;80;21184;-42
2021/03/26 01:38:40;;;;;;;1.07;1.07;;;;;;;-3.45;89.81;100952.01;1780414;80;21116;-43
2021/03/26 01:41:16;;;;;;;0.13;0.13;;;;;;;-3.43;89.72;100955.85;1779676;80;21075;-43
2021/03/26 01:43:46;;;;;;;0.10;0.10;;;;;;;-3.47;89.69;100954.84;1777128;78;21099;-44
2021/03/26 01:46:15;;;;;;;0.05;0.05;;;;;;;-3.48;89.76;100950.52;1785354;80;21133;-42
2021/03/26 01:48:58;;;;;;;0.10;0.10;;;;;;;-3.48;89.67;100946.52;1785899;78;21165;-43
2021/03/26 01:51:38;;;;;;;0.25;0.20;;;;;;;-3.49;89.68;100960.89;1763651;80;21099;-43
2021/03/26 01:54:07;;;;;;;0.10;0.10;;;;;;;-3.50;89.69;100950.37;1754615;81;21121;-42
2021/03/26 01:56:37;;;;;;;0.27;0.27;;;;;;;-3.51;89.73;100954.89;1741164;81;21142;-43
2021/03/26 01:59:24;;;;;;;0.08;0.08;;;;;;;-3.52;89.66;100955.05;1701325;84;21523;-43
2021/03/26 02:01:57;;;;;;;1.80;0.30;;;;;;;-3.54;89.62;100951.20;1729293;82;21206;-42
2021/03/26 02:04:34;;;;;;;0.20;0.20;;;;;;;-3.53;89.76;100957.41;1729908;81;21133;-42
2021/03/26 02:07:04;;;;;;;0.10;0.10;;;;;;;-3.53;89.70;100955.56;1716283;83;21146;-43
2021/03/26 02:09:37;;;;;;;0.53;0.53;;;;;;;-3.52;89.65;100959.05;1724182;83;21162;-43
2021/03/26 02:12:19;;;;;;;0.28;0.28;;;;;;;-3.53;89.63;100955.56;1696478;83;21677;-43
2021/03/26 02:14:51;;;;;;;0.55;0.55;;;;;;;-3.56;89.55;100953.24;1724255;81;21138;-43
2021/03/26 02:17:23;;;;;;;2.37;0.57;;;;;;;-3.59;89.56;100957.58;1725073;83;21517;-42
2021/03/26 02:20:34;;;;;;;0.10;0.10;;;;;;;-3.56;89.64;100962.59;1851796;75;28239;-43
2021/03/26 02:23:11;;;;;;;0.10;0.10;;;;;;;-3.60;89.65;100957.77;1781245;79;21793;-44
2021/03/26 02:25:41;;;;;;;0.40;0.40;;;;;;;-3.60;89.59;100957.77;1811977;77;21489;-42
2021/03/26 02:28:10;;;;;;;1.00;0.50;;;;;;;-3.61;89.61;100967.62;1812734;79;21150;-43
2021/03/26 02:30:44;;;;;;;0.40;0.40;;;;;;;-3.63;89.62;100956.28;1820646;78;21107;-43
2021/03/26 02:33:13;;;;;;;2.58;2.22;;;;;;;-3.65;89.68;100961.47;1824717;77;21130;-43
2021/03/26 02:36:01;;;;;;;0.60;0.57;;;;;;;-3.67;89.67;100954.44;1824198;77;21127;-43
2021/03/26 02:38:38;;;;;;;0.10;0.10;;;;;;;-3.69;89.76;100954.28;1824651;77;21102;-43
2021/03/26 02:41:33;;;;;;;0.13;0.13;;;;;;;-3.70;89.79;100965.98;1815773;77;21593;-43
2021/03/26 02:44:28;;;;;;;0.00;0.00;;;;;;;-3.72;89.79;100953.30;1812796;79;21138;-43
2021/03/26 02:47:10;;;;;;;0.20;0.20;;;;;;;-3.73;89.81;100956.99;1806482;78;21086;-42
2021/03/26 02:50:08;;;;;;;0.10;0.10;;;;;;;-3.77;89.85;100953.82;1792893;77;21111;-43
2021/03/26 02:52:56;;;;;;;0.40;0.40;;;;;;;-3.79;89.87;100963.02;1812831;78;21162;-43
2021/03/26 02:55:48;;;;;;;0.10;0.10;;;;;;;-3.83;89.94;100959.01;1765577;79;21131;-43
2021/03/26 02:58:21;;;;;;;0.08;0.08;;;;;;;-3.87;90.02;100963.05;1815927;77;21123;-42
2021/03/26 03:01:21;;;;;;;0.57;0.57;;;;;;;-3.92;90.05;100962.23;1817787;77;21635;-42
2021/03/26 03:03:50;;;;;;;0.57;0.57;;;;;;;-3.98;90.02;100967.77;1814176;78;21727;-43
2021/03/26 03:06:22;;;;;;;0.10;0.10;;;;;;;-4.04;90.09;100968.43;1813235;78;21119;-43
2021/03/26 03:09:10;;;;;;;0.35;0.35;;;;;;;-4.09;90.17;100969.45;1809215;78;21528;-43
2021/03/26 03:11:48;;;;;;;0.47;0.47;;;;;;;-4.16;90.20;100962.61;1780371;78;21103;-43
2021/03/26 03:14:23;;;;;;;0.10;0.10;;;;;;;-4.20;90.30;100972.49;1829041;77;21137;-42
2021/03/26 03:17:08;;;;;;;0.45;0.45;;;;;;;-4.26;90.46;100973.16;1820453;77;21043;-43
2021/03/26 03:20:03;;;;;;;0.37;0.37;;;;;;;-4.30;90.64;100967.81;1811661;77;21141;-43
2021/03/26 03:23:06;;;;;;;0.55;0.33;;;;;;;-4.38;90.59;100973.49;1817061;78;21145;-43
2021/03/26 03:25:35;;;;;;;0.10;0.10;;;;;;;-4.48;90.63;100968.84;1803999;77;21166;-43
2021/03/26 03:28:29;;;;;;;0.10;0.10;;;;;;;-4.59;90.68;100983.87;1724875;81;21640;-42
2021/03/26 03:31:16;;;;;;;2.25;0.40;;;;;;;-4.65;90.90;100985.85;1745758;80;21151;-43
2021/03/26 03:34:02;;;;;;;0.98;0.88;;;;;;;-4.72;91.16;100987.04;1721381;83;21154;-43
2021/03/26 03:36:36;;;;;;;0.45;0.40;;;;;;;-4.77;91.37;100984.87;1727127;81;21131;-44
2021/03/26 03:39:17;;;;;;;0.75;0.75;;;;;;;-4.81;91.56;100990.19;1747619;81;21580;-43
2021/03/26 03:42:04;;;;;;;0.68;0.68;;;;;;;-4.84;91.73;100994.52;1749100;80;21152;-43
2021/03/26 03:44:41;;;;;;;0.10;0.10;;;;;;;-4.85;91.94;100995.50;1748839;82;21119;-43
2021/03/26 03:47:35;;;;;;;0.00;0.00;;;;;;;-4.87;92.08;100985.53;1750668;81;21859;-43
2021/03/26 03:50:31;;;;;;;0.00;0.00;;;;;;;-4.88;92.30;100987.02;1724851;80;21585;-42
2021/03/26 03:53:23;;;;;;;0.10;0.10;;;;;;;-4.88;92.55;100985.69;1751244;81;21147;-42
2021/03/26 03:56:19;;;;;;;0.42;0.42;;;;;;;-4.88;92.62;100990.51;1715118;83;21139;-43
2021/03/26 03:58:52;;;;;;;0.30;0.30;;;;;;;-4.87;92.79;101000.19;1721560;83;21174;-43
2021/03/26 04:01:39;;;;;;;0.55;0.55;;;;;;;-4.87;93.03;100982.86;1742467;80;21170;-43
2021/03/26 04:04:17;;;;;;;0.95;0.95;;;;;;;-4.83;93.16;100993.52;1751395;81;21151;-43
2021/03/26 04:06:57;;;;;;;0.10;0.10;;;;;;;-4.80;93.27;100993.20;1749890;80;21127;-43
2021/03/26 04:09:30;;;;;;;0.37;0.37;;;;;;;-4.73;93.52;100993.86;1729347;81;21470;-43
2021/03/26 04:12:00;;;;;;;;;;;;;;;-4.65;93.68;100992.52;1745748;80;21127;-43
2021/03/26 04:14:37;;;;;;;0.40;0.40;;;;;;;-4.57;93.83;100998.70;1752489;80;20274;-44
2021/03/26 04:17:22;;;;;;;0.08;0.08;;;;;;;-4.44;93.87;101007.53;1764296;80;21555;-43
2021/03/26 04:20:00;;;;;;;0.10;0.10;;;;;;;-4.35;93.88;101001.20;1729917;81;21131;-43
2021/03/26 04:22:30;;;;;;;6.05;0.82;;;;;;;-4.22;93.94;101001.18;1740050;81;21103;-45
2021/03/26 04:25:25;;;;;;;0.30;0.30;;;;;;;-4.03;94.05;100992.80;1881801;76;25748;-42
2021/03/26 04:28:19;;;;;;;0.10;0.10;;;;;;;-3.93;94.01;100998.78;1846591;77;21126;-44
2021/03/26 04:31:05;;;;;;;0.63;0.33;;;;;;;-3.63;94.02;101003.03;1820014;76;25279;-43
2021/03/26 04:33:35;;;;;;;0.42;0.42;;;;;;;-3.47;93.85;101014.14;1792329;79;21133;-43
2021/03/26 04:36:04;;;;;;;1.27;1.17;;;;;;;-3.29;93.62;101011.20;1817637;77;21592;-43
2021/03/26 04:38:45;;;;;;;0.10;0.10;;;;;;;-3.11;93.40;101019.81;1813901;78;21137;-44
2021/03/26 04:41:29;;;;;;;0.10;0.10;;;;;;;-2.95;93.16;101022.06;1790765;78;20946;-42
2021/03/26 04:44:10;;;;;;;1.22;1.15;;;;;;;-2.80;92.88;101024.30;1816742;78;21121;-43
2021/03/26 04:46:52;;;;;;;0.65;0.65;;;;;;;-2.65;92.58;101026.52;1759965;80;21086;-42
2021/03/26 04:49:42;;;;;;;0.25;0.25;;;;;;;-2.47;92.21;101026.75;1733964;80;21640;-46
2021/03/26 04:52:15;;;;;;;0.20;0.20;;;;;;;-2.29;91.91;101023.23;1784851;80;21130;-46
2021/03/26 04:55:16;;;;;;;1.77;1.55;;;;;;;-2.02;91.39;101027.68;1809758;76;29494;-43
2021/03/26 04:57:59;;;;;;;0.35;0.35;;;;;;;-1.88;90.87;101025.53;1781960;80;21589;-42
2021/03/26 05:00:47;;;;;;;0.53;0.53;;;;;;;-1.62;90.23;101028.25;1763914;80;21170;-46
2021/03/26 05:03:29;;;;;;;0.33;0.33;;;;;;;-1.45;89.62;101023.02;1746631;80;21153;-46
2021/03/26 05:06:09;;;;;;;0.03;0.03;;;;;;;-1.27;88.95;101029.84;1764473;81;21195;-45
2021/03/26 05:08:46;;;;;;;1.45;0.88;;;;;;;-1.11;88.34;101027.78;1764675;79;21331;-46
2021/03/26 05:11:32;;;;;;;0.35;0.35;;;;;;;-0.94;87.60;101029.73;1773064;80;21129;-46
2021/03/26 05:14:05;;;;;;;0.67;0.67;;;;;;;-0.77;86.79;101030.81;1786028;78;21505;-42
2021/03/26 05:16:50;;;;;;;0.50;0.47;;;;;;;-0.61;86.04;101027.89;1777690;80;21007;-46
2021/03/26 05:19:42;;;;;;;0.20;0.20;;;;;;;-0.44;85.22;101027.13;1779822;78;21623;-46
2021/03/26 05:22:39;;;;;;;0.20;0.20;;;;;;;-0.26;84.18;101035.54;1741765;80;21118;-46
2021/03/26 05:25:39;;;;;;;0.17;0.17;;;;;;;-0.09;83.08;101045.50;1668342;81;21162;-46
2021/03/26 05:28:32;;;;;;;0.75;0.75;;;;;;;0.21;81.98;101034.03;1836991;76;29100;-46
2021/03/26 05:31:22;;;;;;;0.20;0.20;;;;;;;0.34;81.13;101037.31;1766073;80;21118;-46
2021/03/26 05:33:51;;;;;;;3.10;0.55;;;;;;;0.50;80.13;101035.36;1779134;78;21145;-43
2021/03/26 05:36:35;;;;;;;0.35;0.35;;;;;;;0.69;79.34;101034.59;1753408;80;21334;-45
2021/03/26 05:39:24;;;;;;;0.25;0.25;;;;;;;0.94;77.95;101038.12;1866668;76;29056;-43
2021/03/26 05:42:50;;;;;;;0.70;0.70;;;;;;;1.05;76.52;101047.80;1798960;79;21463;-43
2021/03/26 05:46:22;;;;;;;1.25;1.17;;;;;;;1.33;75.73;101052.21;1826036;76;29142;-46
2021/03/26 05:49:25;;;;;;;0.30;0.30;;;;;;;1.44;74.93;101045.42;1790402;78;21594;-46
2021/03/26 05:52:11;;;;;;;0.10;0.10;;;;;;;1.74;73.63;101042.34;1832206;76;29117;-42
2021/03/26 05:54:51;;;;;;;0.55;0.55;;;;;;;1.85;72.78;101048.45;1781395;78;21078;-44
2021/03/26 05:57:35;;;;;;;0.42;0.42;;;;;;;2.01;71.62;101046.69;1780843;80;21575;-43
2021/03/26 06:00:31;;;;;;;1.37;1.27;;;;;;;2.20;71.28;101050.91;1774906;80;21130;-42
2021/03/26 06:03:25;;;;;;;0.30;0.30;;;;;;;2.40;70.75;101048.19;1781724;80;21911;-43
2021/03/26 06:06:38;;;;;;;0.50;0.28;;;;;;;2.71;69.27;101059.11;1887770;76;29041;-45
2021/03/26 06:09:56;;;;;;;0.15;0.15;;;;;;;2.85;69.03;101061.25;1828946;77;21126;-45
2021/03/26 06:12:53;;;;;;;0.35;0.35;;;;;;;3.06;68.08;101056.06;1793381;79;21162;-45
2021/03/26 06:16:15;;;;;;;0.93;0.88;;;;;;;3.28;67.65;101065.21;1746073;81;21158;-45
2021/03/26 06:19:13;;;;;;;0.57;0.57;;;;;;;3.47;66.03;101058.87;1763493;80;21106;-43
2021/03/26 06:22:26;;;;;;;1.75;1.65;;;;;;;3.78;65.45;101074.23;1844777;76;23075;-45
2021/03/26 06:25:23;;;;;;;1.50;0.72;;;;;;;3.86;64.54;101076.69;1808606;78;21122;-45
2021/03/26 06:28:24;;;;;;;0.42;0.42;;;;;;;4.02;63.32;101070.42;1800675;78;22011;-46
2021/03/26 06:31:26;;;;;;;0.55;0.55;;;;;;;4.19;62.34;101070.17;1703684;83;21078;-46
2021/03/26 06:34:48;;;;;;;1.50;1.05;;;;;;;4.36;62.30;101072.32;1746490;81;21178;-43
2021/03/26 06:37:37;;;;;;;0.20;0.20;;;;;;;4.55;61.76;101070.45;1724325;83;21131;-46
2021/03/26 06:40:21;;;;;;;1.47;1.42;;;;;;;4.72;60.51;101069.65;1721832;81;21143;-43
2021/03/26 06:43:20;;;;;;;0.78;0.78;;;;;;;4.86;60.04;101070.31;1724217;83;21509;-46
2021/03/26 06:46:25;;;;;;;0.25;0.25;;;;;;;5.03;60.22;101066.46;1751724;80;21182;-43
2021/03/26 06:49:14;;;;;;;1.45;1.37;;;;;;;5.18;59.59;101069.59;1724307;81;21186;-46
2021/03/26 06:52:03;;;;;;;0.30;0.30;;;;;;;5.40;59.93;101073.17;1750899;81;21126;-44
2021/03/26 06:54:54;;;;;;;2.80;1.77;;;;;;;5.69;59.70;101070.15;1843810;76;27697;-43
2021/03/26 06:57:36;;;;;;;1.42;1.32;;;;;;;5.85;59.22;101068.64;1822586;78;21129;-43
2021/03/26 07:00:18;;;;;;;1.23;1.13;;;;;;;6.10;58.44;101078.50;1822537;78;21447;-46
2021/03/26 07:03:12;;;;;;;0.57;0.57;;;;;;;6.30;58.13;101074.09;1815278;78;21179;-43
2021/03/26 07:06:05;;;;;;;0.62;0.62;;;;;;;6.51;56.72;101076.77;1814184;78;21141;-43
2021/03/26 07:09:09;;;;;;;0.33;0.33;;;;;;;6.70;55.94;101078.28;1821829;77;21117;-43
2021/03/26 07:11:50;;;;;;;0.20;0.20;;;;;;;6.84;55.70;101078.30;1822467;78;21413;-44
2021/03/26 07:14:52;;;;;;;1.67;1.57;;;;;;;6.99;54.89;101079.69;1822140;77;21471;-46
2021/03/26 07:17:38;;;;;;;0.75;0.75;;;;;;;7.14;54.93;101077.27;1821148;78;21189;-42
2021/03/26 07:20:26;;;;;;;1.25;1.17;;;;;;;7.26;54.63;101077.25;1820839;78;21109;-45
2021/03/26 07:23:29;;;;;;;2.30;1.60;;;;;;;7.45;53.07;101077.89;1822401;78;21161;-43
2021/03/26 07:26:49;;;;;;;3.50;2.10;;;;;;;7.62;53.18;101070.59;1776816;80;21420;-43
2021/03/26 07:29:48;;;;;;;1.77;1.67;;;;;;;7.80;53.20;101079.06;1790170;78;21433;-46
2021/03/26 07:32:43;;;;;;;1.80;1.10;;;;;;;7.92;51.55;101071.66;1767967;78;21184;-46
2021/03/26 07:35:41;;;;;;;0.95;0.50;;;;;;;7.96;51.45;101079.62;1818624;78;21149;-44
2021/03/26 07:38:41;;;;;;;0.50;0.50;;;;;;;8.16;51.28;101074.23;1822091;77;21106;-46
2021/03/26 07:41:49;;;;;;;1.75;0.85;;;;;;;8.31;50.71;101067.66;1792081;78;21153;-44
2021/03/26 07:44:30;;;;;;;0.88;0.45;;;;;;;8.48;50.77;101074.48;1821775;78;21145;-46
2021/03/26 07:47:24;;;;;;;0.53;0.53;;;;;;;8.64;49.92;101071.42;1821208;78;21115;-45
2021/03/26 07:50:23;;;;;;;0.75;0.72;;;;;;;8.82;48.54;101071.66;1821811;77;21544;-46
2021/03/26 07:53:02;;;;;;;0.50;0.50;;;;;;;8.92;48.30;101070.42;1809387;78;21283;-43
2021/03/26 07:55:45;;;;;;;2.47;0.98;;;;;;;9.01;47.85;101068.91;1804376;78;21677;-43
2021/03/26 07:59:08;;;;;;;2.52;1.47;;;;;;;9.24;47.06;101076.53;1824938;77;21198;-43
2021/03/26 08:02:28;;;;;;;1.02;1.02;;;;;;;9.32;46.76;101077.47;1825336;78;21595;-46
2021/03/26 08:05:09;;;;;;;0.60;0.53;;;;;;;9.47;45.21;101080.36;1823046;77;21109;-44
2021/03/26 08:07:48;;;;;;;1.82;0.70;;;;;;;9.63;44.53;101080.50;1824695;78;21129;-46
2021/03/26 08:10:51;;;;;;;0.30;0.30;;;;;;;9.81;44.38;101081.48;1815492;78;21073;-44
2021/03/26 08:13:50;;;;;;;0.45;0.45;;;;;;;10.04;43.27;101083.59;1824235;78;21117;-46
2021/03/26 08:16:36;;;;;;;0.17;0.17;;;;;;;10.21;43.68;101081.58;1824384;78;21208;-46
2021/03/26 08:19:26;;;;;;;0.93;0.93;;;;;;;10.29;42.61;101080.30;1822715;77;21531;-46
2021/03/26 08:22:17;;;;;;;2.33;2.12;;;;;;;10.32;42.35;101080.58;1770189;80;21141;-46
2021/03/26 08:25:08;;;;;;;0.82;0.80;;;;;;;10.45;42.02;101075.75;1792061;78;21156;-44
2021/03/26 08:27:44;;;;;;;1.87;0.93;;;;;;;10.58;42.32;101082.11;1823963;78;21101;-46
2021/03/26 08:30:34;;;;;;;0.53;0.53;;;;;;;10.59;42.54;101079.67;1824492;78;21121;-44
2021/03/26 08:33:31;;;;;;;0.75;0.62;;;;;;;10.68;41.89;101076.73;1799193;77;21492;-48
2021/03/26 08:36:38;;;;;;;0.30;0.30;;;;;;;10.83;41.32;101080.61;1824588;78;21150;-45
2021/03/26 08:39:41;;;;;;;2.40;1.10;;;;;;;10.76;39.43;101074.85;1799326;78;21125;-44
2021/03/26 08:42:23;;;;;;;0.37;0.37;;;;;;;10.61;39.15;101084.85;1824675;78;21744;-46
2021/03/26 08:45:03;;;;;;;1.05;0.62;;;;;;;10.37;39.50;101087.18;1824636;77;21135;-44
2021/03/26 08:47:36;;;;;;;1.45;0.80;;;;;;;10.12;40.05;101091.33;1820881;78;21121;-45
2021/03/26 08:50:15;;;;;;;0.35;0.35;;;;;;;9.94;41.99;101078.05;1824848;78;21141;-47
2021/03/26 08:53:01;;;;;;;0.13;0.13;;;;;;;9.94;41.01;101082.99;1812852;78;21581;-43
2021/03/26 08:55:42;;;;;;;1.65;0.93;;;;;;;10.05;41.70;101082.53;1821848;78;21432;-47
2021/03/26 08:58:41;;;;;;;0.10;0.10;;;;;;;10.23;42.51;101083.48;1824406;78;21117;-47
2021/03/26 09:01:49;;;;;;;1.98;0.47;;;;;;;10.29;43.61;101085.77;1824434;78;21098;-44
2021/03/26 09:04:49;;;;;;;0.28;0.28;;;;;;;10.39;43.25;101089.11;1824146;77;21196;-44
2021/03/26 09:07:36;;;;;;;0.70;0.62;;;;;;;10.52;42.66;101094.11;1824470;78;21105;-44
2021/03/26 09:10:45;;;;;;;0.10;0.10;;;;;;;10.57;43.12;101092.77;1802944;78;21164;-44
2021/03/26 09:13:50;;;;;;;0.40;0.40;;;;;;;10.65;43.15;101092.81;1795577;77;21220;-45
2021/03/26 09:16:27;;;;;;;0.42;0.25;;;;;;;10.71;43.59;101087.67;1824395;78;21401;-44
2021/03/26 09:19:00;;;;;;;1.95;0.95;;;;;;;10.82;43.99;101087.17;1823455;77;21401;-44
2021/03/26 09:21:49;;;;;;;0.10;0.10;;;;;;;10.92;44.39;101081.20;1824419;78;21507;-44
2021/03/26 09:24:53;;;;;;;1.02;0.35;;;;;;;11.04;42.95;101081.55;1824414;77;21113;-44
2021/03/26 09:27:41;;;;;;;0.17;0.17;;;;;;;11.02;42.94;101093.28;1824375;78;21128;-44
2021/03/26 09:30:17;;;;;;;0.10;0.10;;;;;;;10.86;43.04;101082.83;1824244;78;21118;-43
2021/03/26 09:32:53;;;;;;;0.40;0.40;;;;;;;10.78;41.14;101090.16;1824230;78;21128;-44
2021/03/26 09:35:30;;;;;;;0.10;0.10;;;;;;;10.66;42.66;101085.73;1824289;78;21148;-44
2021/03/26 09:38:07;;;;;;;1.22;0.57;;;;;;;10.66;42.98;101081.63;1824406;78;21187;-44
2021/03/26 09:40:49;;;;;;;1.25;1.25;;;;;;;10.78;43.99;101079.22;1824398;78;21131;-44
2021/03/26 09:43:22;;;;;;;0.68;0.68;;;;;;;10.84;42.53;101080.91;1791971;78;28722;-43
2021/03/26 09:46:05;;;;;;;2.42;1.98;;;;;;;10.82;43.05;101077.61;1791917;80;21133;-47
2021/03/26 09:48:45;;;;;;;0.45;0.42;;;;;;;10.90;42.38;101075.72;1791833;78;21146;-46
2021/03/26 09:51:41;;;;;;;0.20;0.20;;;;;;;11.02;43.45;101087.27;1821183;78;21117;-46
2021/03/26 09:54:17;;;;;;;1.75;0.50;;;;;;;11.02;42.42;101080.43;1819290;78;21416;-46
2021/03/26 09:57:00;;;;;;;1.65;0.85;;;;;;;10.89;44.79;101080.38;1812315;79;21113;-44
2021/03/26 10:00:05;;;;;;;1.87;0.35;;;;;;;10.89;42.96;101085.03;1818281;78;21528;-44
2021/03/26 10:02:41;;;;;;;0.10;0.10;;;;;;;10.90;44.51;101093.50;1820704;77;21097;-44
2021/03/26 10:05:33;;;;;;;0.60;0.37;;;;;;;10.80;43.26;101083.33;1792301;78;21082;-44
2021/03/26 10:11:14;;;;;;;0.50;0.50;;;;;;;10.79;44.12;101083.06;1821190;78;20927;-44
2021/03/26 10:13:54;;;;;;;0.10;0.10;;;;;;;10.92;44.12;101087.22;1813396;78;21129;-44
2021/03/26 10:16:36;;;;;;;0.30;0.30;;;;;;;10.93;43.34;101080.13;1821488;78;21141;-44
2021/03/26 10:19:12;;;;;;;0.17;0.08;;;;;;;11.00;43.98;101080.42;1821294;77;21157;-44
2021/03/26 10:21:47;;;;;;;0.20;0.20;;;;;;;11.00;45.27;101079.87;1821541;78;21129;-44
2021/03/26 10:24:29;;;;;;;0.30;0.25;;;;;;;11.02;44.28;101085.90;1821416;78;21157;-44
2021/03/26 10:27:15;;;;;;;0.10;0.10;;;;;;;11.07;46.54;101076.34;1815848;78;21422;-44
2021/03/26 10:29:59;;;;;;;0.20;0.20;;;;;;;11.14;44.97;101074.19;1821224;78;21137;-43
2021/03/26 10:32:33;;;;;;;0.75;0.42;;;;;;;11.24;45.51;101072.59;1821186;78;21141;-43
2021/03/26 10:35:13;;;;;;;1.22;0.82;;;;;;;11.29;45.11;101068.50;1790772;78;21575;-44
2021/03/26 10:37:45;;;;;;;0.00;0.00;;;;;;;11.44;44.10;101070.45;1813919;78;21124;-44
2021/03/26 10:40:36;;;;;;;0.77;0.33;;;;;;;11.55;43.31;101068.03;1788917;78;21523;-44
2021/03/26 10:43:26;;;;;;;0.13;0.13;;;;;;;11.60;43.02;101063.94;1811883;78;21275;-43
2021/03/26 10:46:00;;;;;;;0.65;0.40;;;;;;;11.71;42.67;101055.99;1813664;78;21111;-44
2021/03/26 10:48:48;;;;;;;0.93;0.60;;;;;;;11.84;40.54;101063.69;1810888;78;21508;-44
2021/03/26 10:51:48;;;;;;;0.33;0.33;;;;;;;11.74;40.30;101058.17;1807784;79;21412;-44
2021/03/26 10:54:31;;;;;;;0.20;0.20;;;;;;;11.58;41.75;101055.98;1740145;79;21527;-44
2021/03/26 10:57:20;;;;;;;0.17;0.17;;;;;;;11.52;43.28;101062.55;1808281;79;21506;-44
2021/03/26 11:00:19;;;;;;;0.15;0.15;;;;;;;11.49;43.48;101061.70;1782312;78;21431;-44
2021/03/26 11:02:55;;;;;;;0.30;0.30;;;;;;;11.52;43.08;101061.19;1819070;78;21520;-44
2021/03/26 11:05:34;;;;;;;0.03;0.03;;;;;;;11.47;43.20;101069.36;1820634;78;21113;-45
2021/03/26 11:08:10;;;;;;;0.55;0.28;;;;;;;11.46;43.38;101065.54;1820998;77;21428;-44
2021/03/26 11:10:46;;;;;;;0.20;0.20;;;;;;;11.45;44.13;101063.87;1821027;78;21181;-45
2021/03/26 11:13:54;;;;;;;0.00;0.00;;;;;;;11.46;43.98;101065.54;1820860;78;21197;-44
2021/03/26 11:16:29;;;;;;;0.00;0.00;;;;;;;11.54;43.06;101063.63;1740419;78;21136;-45
2021/03/26 11:19:13;;;;;;;0.47;0.20;;;;;;;11.63;42.01;101059.28;1820352;77;21196;-44
2021/03/26 11:21:49;;;;;;;0.37;0.37;;;;;;;11.60;41.42;101066.11;1819696;78;21093;-44
2021/03/26 11:24:18;;;;;;;0.72;0.50;;;;;;;11.60;42.61;101053.80;1825423;77;21134;-45
2021/03/26 11:27:04;;;;;;;0.25;0.25;;;;;;;11.59;42.22;101059.53;1735830;80;21145;-44
2021/03/26 11:29:36;;;;;;;0.20;0.20;;;;;;;11.67;43.08;101044.48;1788956;78;21200;-44
2021/03/26 11:32:21;;;;;;;0.13;0.13;;;;;;;11.79;42.53;101050.00;1806154;78;21641;-46
2021/03/26 11:35:18;;;;;;;0.40;0.40;;;;;;;11.79;41.10;101057.36;1818531;77;21094;-44
2021/03/26 11:37:55;;;;;;;0.23;0.20;;;;;;;11.73;41.66;101045.59;1780336;78;20970;-45
2021/03/26 11:40:51;;;;;;;0.70;0.53;;;;;;;11.72;41.07;101056.80;1793358;78;21109;-44
2021/03/26 11:43:43;;;;;;;0.15;0.15;;;;;;;11.79;41.23;101053.26;1856645;76;22745;-45
2021/03/26 11:46:16;;;;;;;0.50;0.45;;;;;;;11.83;42.55;101043.41;1819796;77;21651;-44
2021/03/26 11:49:05;;;;;;;0.33;0.33;;;;;;;11.76;40.55;101042.86;1851709;77;21103;-45
2021/03/26 11:51:55;;;;;;;0.60;0.30;;;;;;;11.75;40.66;101043.97;1812896;77;21115;-45
2021/03/26 11:54:29;;;;;;;1.87;1.15;;;;;;;11.81;42.47;101053.26;1785657;78;21126;-44
2021/03/26 11:57:17;;;;;;;1.00;0.40;;;;;;;11.88;39.37;101056.32;1770008;79;21121;-45
2021/03/26 11:59:56;;;;;;;0.53;0.47;;;;;;;11.83;40.26;101044.23;1757103;80;21121;-45
2021/03/26 12:02:51;;;;;;;0.42;0.28;;;;;;;11.78;41.60;101048.34;1766561;80;21198;-44
2021/03/26 12:05:41;;;;;;;0.47;0.20;;;;;;;11.82;40.57;101045.34;1822760;78;21181;-43
2021/03/26 12:08:50;;;;;;;1.12;0.55;;;;;;;11.83;38.79;101046.16;1803193;78;21140;-44
2021/03/26 12:11:39;;;;;;;0.15;0.15;;;;;;;11.85;38.28;101042.59;1789571;78;20970;-44
2021/03/26 12:14:46;;;;;;;0.53;0.53;;;;;;;11.83;39.13;101040.67;1793967;78;21092;-44
2021/03/26 12:17:30;;;;;;;0.17;0.17;;;;;;;11.79;39.61;101043.16;1750478;78;21167;-45
2021/03/26 12:20:08;;;;;;;0.35;0.35;;;;;;;11.77;41.26;101034.91;1766549;78;21186;-44
2021/03/26 12:23:01;;;;;;;0.37;0.30;;;;;;;11.76;41.86;101031.35;1765696;80;21114;-44
2021/03/26 12:25:41;;;;;;;0.53;0.30;;;;;;;11.79;42.21;101040.41;1757148;80;21545;-44
2021/03/26 12:28:42;;;;;;;1.15;0.23;;;;;;;11.80;40.44;101037.13;1755658;80;21122;-45
2021/03/26 12:31:15;;;;;;;0.47;0.47;;;;;;;11.83;41.56;101032.46;1737911;81;21221;-47
2021/03/26 12:33:51;;;;;;;0.00;0.00;;;;;;;11.90;40.67;101035.78;1790756;78;21135;-43
2021/03/26 12:36:42;;;;;;;0.68;0.57;;;;;;;12.02;40.21;101034.14;1775562;78;21595;-46
2021/03/26 12:39:31;;;;;;;0.10;0.10;;;;;;;12.10;41.55;101036.87;1762368;79;21165;-44
2021/03/26 12:42:17;;;;;;;0.10;0.10;;;;;;;12.14;41.99;101031.09;1766311;80;21178;-47
2021/03/26 12:45:09;;;;;;;0.10;0.10;;;;;;;12.27;41.28;101031.92;1792469;79;21162;-47
2021/03/26 12:47:50;;;;;;;0.05;0.00;;;;;;;12.47;41.79;101031.05;1761525;81;21139;-46
2021/03/26 12:50:26;;;;;;;1.17;0.60;;;;;;;12.50;39.90;101025.01;1784940;80;21198;-46